createdAt,value
2019-04-07T00:01:52.645Z,29.97
2019-04-07T00:04:22.511Z,29.33
2019-04-07T00:06:52.274Z,32.23
2019-04-07T00:09:22.272Z,28.00
2019-04-07T00:11:52.105Z,32.40
2019-04-07T00:14:21.775Z,35.30
2019-04-07T00:16:51.807Z,39.80
2019-04-07T00:19:21.914Z,33.23
2019-04-07T00:21:51.712Z,37.67
2019-04-07T00:24:21.886Z,35.43
2019-04-07T00:26:52.587Z,35.07
2019-04-07T00:29:22.816Z,30.90
2019-04-07T00:31:52.567Z,42.57
2019-04-07T00:34:22.268Z,32.70
2019-04-07T00:36:52.188Z,30.17
2019-04-07T00:39:21.726Z,37.47
2019-04-07T00:41:51.966Z,31.67
2019-04-07T00:44:21.616Z,37.93
2019-04-07T00:46:51.197Z,32.07
2019-04-07T00:49:20.704Z,35.97
2019-04-07T00:51:51.613Z,36.67
2019-04-07T00:54:21.489Z,36.43
2019-04-07T00:56:51.181Z,35.43
2019-04-07T00:59:21.968Z,33.87
2019-04-07T01:01:51.585Z,34.47
2019-04-07T01:04:22.156Z,30.00
2019-04-07T01:06:52.927Z,31.63
2019-04-07T01:09:22.533Z,31.87
2019-04-07T01:11:52.423Z,31.00
2019-04-07T01:14:23.629Z,33.40
2019-04-07T01:16:53.158Z,31.37
2019-04-07T01:19:22.780Z,31.37
2019-04-07T01:21:52.162Z,28.47
2019-04-07T01:24:22.606Z,29.87
2019-04-07T01:26:52.562Z,32.93
2019-04-07T01:29:22.115Z,30.47
2019-04-07T01:31:51.813Z,35.43
2019-04-07T01:34:21.544Z,32.37
2019-04-07T01:36:51.033Z,38.03
2019-04-07T01:39:22.041Z,48.87
2019-04-07T01:41:59.554Z,48.17
2019-04-07T01:44:30.967Z,42.67
2019-04-07T01:47:11.349Z,39.37
2019-04-07T01:49:48.935Z,39.00
2019-04-07T01:52:21.096Z,29.00
2019-04-07T01:54:58.282Z,34.83
2019-04-07T01:57:35.650Z,26.80
2019-04-07T02:00:11.290Z,33.60
2019-04-07T02:02:45.569Z,28.97
2019-04-07T02:05:25.345Z,29.43
2019-04-07T02:08:12.007Z,31.87
2019-04-07T02:10:46.084Z,28.10
2019-04-07T02:13:33.892Z,34.07
2019-04-07T02:16:05.337Z,31.73
2019-04-07T02:18:51.296Z,31.20
2019-04-07T02:21:31.598Z,28.33
2019-04-07T02:24:02.744Z,30.03
2019-04-07T02:26:36.892Z,29.13
2019-04-07T02:29:25.563Z,31.57
2019-04-07T02:32:03.608Z,38.60
2019-04-07T02:34:47.361Z,27.93
2019-04-07T02:37:19.298Z,31.53
2019-04-07T02:39:53.336Z,30.87
2019-04-07T02:42:25.058Z,32.13
2019-04-07T02:44:57.343Z,29.43
2019-04-07T02:47:41.884Z,26.83
2019-04-07T02:50:15.493Z,28.83
2019-04-07T02:52:47.373Z,31.90
2019-04-07T02:55:35.619Z,29.80
2019-04-07T02:58:07.794Z,26.63
2019-04-07T03:00:41.879Z,31.63
2019-04-07T03:03:14.055Z,31.40
2019-04-07T03:05:48.518Z,30.57
2019-04-07T03:08:35.601Z,31.43
2019-04-07T03:11:12.266Z,26.37
2019-04-07T03:13:52.499Z,27.93
2019-04-07T03:16:26.681Z,33.90
2019-04-07T03:19:15.123Z,31.17
2019-04-07T03:21:55.598Z,28.60
2019-04-07T03:24:33.566Z,27.63
2019-04-07T03:27:08.028Z,27.83
2019-04-07T03:29:41.952Z,32.27
2019-04-07T03:32:25.869Z,32.73
2019-04-07T03:35:16.027Z,29.03
2019-04-07T03:37:53.216Z,29.67
2019-04-07T03:40:24.563Z,35.40
2019-04-07T03:42:59.177Z,29.67
2019-04-07T03:45:44.038Z,31.50
2019-04-07T03:48:15.798Z,32.43
2019-04-07T03:50:46.961Z,30.33
2019-04-07T03:53:34.404Z,32.57
2019-04-07T03:56:08.481Z,29.17
2019-04-07T03:58:56.005Z,31.07
2019-04-07T04:01:33.699Z,28.70
2019-04-07T04:04:16.011Z,30.20
2019-04-07T04:07:00.129Z,28.33
2019-04-07T04:09:49.807Z,32.27
2019-04-07T04:12:21.397Z,29.30
2019-04-07T04:14:55.707Z,29.37
2019-04-07T04:17:25.316Z,30.40
2019-04-07T04:19:55.885Z,29.97
2019-04-07T04:22:26.047Z,25.83
2019-04-07T04:24:56.055Z,30.93
2019-04-07T04:27:25.562Z,31.50
2019-04-07T04:29:55.319Z,30.57
2019-04-07T04:32:25.524Z,34.47
2019-04-07T04:34:55.250Z,28.83
2019-04-07T04:37:37.859Z,30.60
2019-04-07T04:39:56.058Z,27.70
2019-04-07T04:42:26.814Z,33.70
2019-04-07T04:44:56.905Z,37.53
2019-04-07T04:47:27.388Z,35.03
2019-04-07T04:49:57.710Z,35.57
2019-04-07T04:52:27.719Z,29.47
2019-04-07T04:54:57.519Z,30.57
2019-04-07T04:57:27.160Z,28.33
2019-04-07T04:59:56.712Z,31.20
2019-04-07T05:02:27.530Z,33.30
2019-04-07T05:04:57.506Z,28.77
2019-04-07T05:11:16.735Z,32.47
2019-04-07T05:13:26.016Z,31.80
2019-04-07T05:16:04.983Z,32.67
2019-04-07T05:18:35.980Z,31.70
2019-04-07T05:21:08.523Z,28.30
2019-04-07T05:23:38.498Z,36.13
2019-04-07T05:26:10.076Z,35.97
2019-04-07T05:35:06.370Z,36.60
2019-04-07T05:37:38.353Z,35.23
2019-04-07T05:40:11.414Z,31.13
2019-04-07T05:42:51.685Z,37.80
2019-04-07T05:45:21.478Z,34.30
2019-04-07T05:47:52.507Z,35.57
2019-04-07T05:50:22.338Z,37.13
2019-04-07T05:52:51.841Z,33.00
2019-04-07T05:55:23.946Z,36.87
2019-04-07T05:57:53.148Z,34.87
2019-04-07T06:00:23.427Z,40.60
2019-04-07T06:02:53.337Z,30.10
2019-04-07T06:05:22.931Z,35.27
2019-04-07T06:07:52.747Z,31.70
2019-04-07T06:10:27.610Z,38.60
2019-04-07T06:12:55.383Z,32.27
2019-04-07T06:15:25.803Z,30.90
2019-04-07T06:17:58.795Z,38.17
2019-04-07T06:20:26.791Z,30.87
2019-04-07T06:22:56.517Z,31.87
2019-04-07T06:25:27.217Z,31.77
2019-04-07T06:27:57.716Z,32.43
2019-04-07T06:30:30.120Z,34.13
2019-04-07T06:32:59.152Z,30.57
2019-04-07T06:35:28.765Z,30.90
2019-04-07T06:38:04.063Z,28.77
2019-04-07T06:40:30.615Z,33.17
2019-04-07T06:43:06.389Z,35.03
2019-04-07T06:45:46.431Z,35.50
2019-04-07T06:48:16.609Z,27.43
2019-04-07T06:50:54.569Z,27.57
2019-04-07T06:53:35.673Z,29.60
2019-04-07T06:56:12.950Z,30.23
2019-04-07T06:58:53.259Z,28.70
2019-04-07T07:01:30.715Z,32.93
2019-04-07T07:04:10.885Z,26.77
2019-04-07T07:06:56.870Z,31.93
2019-04-07T07:09:28.845Z,34.03
2019-04-07T07:12:22.701Z,32.83
2019-04-07T07:14:52.774Z,30.90
2019-04-07T07:17:33.191Z,29.70
2019-04-07T07:20:07.293Z,25.47
2019-04-07T07:22:40.267Z,23.87
2019-04-07T07:25:12.401Z,26.20
2019-04-07T07:27:43.102Z,28.43
2019-04-07T07:30:15.166Z,26.23
2019-04-07T07:32:44.283Z,23.83
2019-04-07T07:35:15.317Z,28.13
2019-04-07T07:37:45.529Z,25.33
2019-04-07T07:40:17.945Z,24.57
2019-04-07T07:42:49.035Z,24.97
2019-04-07T07:45:18.666Z,26.40
2019-04-07T07:47:51.333Z,28.73
2019-04-07T07:50:20.141Z,34.93
2019-04-07T07:52:53.407Z,30.17
2019-04-07T07:55:21.946Z,30.03
2019-04-07T07:57:56.776Z,25.03
2019-04-07T08:00:23.607Z,30.30
2019-04-07T08:02:53.817Z,32.47
2019-04-07T08:05:24.832Z,29.97
2019-04-07T08:07:55.172Z,31.60
2019-04-07T08:10:25.413Z,36.60
2019-04-07T08:12:56.328Z,31.40
2019-04-07T08:15:30.995Z,33.17
2019-04-07T08:17:57.383Z,28.27
2019-04-07T08:20:30.589Z,31.77
2019-04-07T08:23:00.667Z,31.97
2019-04-07T08:25:30.362Z,39.17
2019-04-07T08:28:02.189Z,35.80
2019-04-07T08:30:31.797Z,36.93
2019-04-07T08:33:02.402Z,37.70
2019-04-07T08:35:37.783Z,30.33
2019-04-07T08:38:05.982Z,34.27
2019-04-07T08:40:38.141Z,32.90
2019-04-07T08:43:08.287Z,30.97
2019-04-07T08:45:38.189Z,36.73
2019-04-07T08:48:08.969Z,31.67
2019-04-07T08:50:38.664Z,30.30
2019-04-07T08:53:14.099Z,33.10
2019-04-07T08:55:47.772Z,35.23
2019-04-07T08:58:24.893Z,37.30
2019-04-07T09:00:51.601Z,35.40
2019-04-07T09:03:20.826Z,33.87
2019-04-07T09:05:51.392Z,33.03
2019-04-07T09:08:21.034Z,34.67
2019-04-07T09:11:04.639Z,42.07
2019-04-07T09:13:34.594Z,35.20
2019-04-07T09:16:06.091Z,34.30
2019-04-07T09:19:02.538Z,36.07
2019-04-07T09:21:47.546Z,36.47
2019-04-07T09:24:32.770Z,36.00
2019-04-07T09:27:23.398Z,28.70
2019-04-07T09:30:01.434Z,32.70
2019-04-07T09:32:43.840Z,26.30
2019-04-07T09:35:33.382Z,34.77
2019-04-07T09:38:11.014Z,27.70
2019-04-07T09:40:58.557Z,32.57
2019-04-07T09:43:30.622Z,29.40
2019-04-07T09:46:05.041Z,35.27
2019-04-07T09:48:52.743Z,28.63
2019-04-07T09:51:24.373Z,28.07
2019-04-07T09:54:01.717Z,29.13
2019-04-07T09:56:33.691Z,23.67
2019-04-07T09:59:07.929Z,27.63
2019-04-07T10:01:54.183Z,24.47
2019-04-07T10:04:42.277Z,26.87
2019-04-07T10:07:30.494Z,25.00
2019-04-07T10:10:13.943Z,26.97
2019-04-07T10:12:58.361Z,23.30
2019-04-07T10:15:32.855Z,26.07
2019-04-07T10:18:07.543Z,21.73
2019-04-07T10:20:46.706Z,23.10
2019-04-07T10:23:24.226Z,25.43
2019-04-07T10:25:56.120Z,23.10
2019-04-07T10:28:41.810Z,24.80
2019-04-07T10:31:18.421Z,18.33
2019-04-07T10:34:04.001Z,27.83
2019-04-07T10:36:44.971Z,21.90
2019-04-07T10:39:19.874Z,20.83
2019-04-07T10:41:56.924Z,14.27
2019-04-07T10:44:34.179Z,17.87
2019-04-07T10:47:21.653Z,16.57
2019-04-07T10:50:07.497Z,19.30
2019-04-07T10:52:54.516Z,18.57
2019-04-07T10:55:28.926Z,16.33
2019-04-07T10:58:09.139Z,16.60
2019-04-07T11:00:53.831Z,16.93
2019-04-07T11:03:35.101Z,15.43
2019-04-07T11:06:07.309Z,22.20
2019-04-07T11:08:55.534Z,15.73
2019-04-07T11:11:32.549Z,23.97
2019-04-07T11:14:06.890Z,17.83
2019-04-07T11:16:54.928Z,17.80
2019-04-07T11:19:29.270Z,18.67
2019-04-07T11:22:03.127Z,18.20
2019-04-07T11:24:49.630Z,17.53
2019-04-07T11:27:21.134Z,19.57
2019-04-07T11:30:01.574Z,19.17
2019-04-07T11:32:32.872Z,16.90
2019-04-07T11:35:21.123Z,13.77
2019-04-07T11:37:55.395Z,16.63
2019-04-07T11:40:49.602Z,18.13
2019-04-07T11:43:17.712Z,14.80
2019-04-07T11:45:58.429Z,14.57
2019-04-07T11:48:28.005Z,17.30
2019-04-07T11:51:03.314Z,16.50
2019-04-07T11:53:41.489Z,18.80
2019-04-07T11:56:29.647Z,18.00
2019-04-07T11:59:08.833Z,19.13
2019-04-07T12:01:43.667Z,17.73
2019-04-07T12:04:28.345Z,19.47
2019-04-07T12:07:19.098Z,18.17
2019-04-07T12:10:09.720Z,14.93
2019-04-07T12:12:44.108Z,17.70
2019-04-07T12:15:22.715Z,16.07
2019-04-07T12:17:55.984Z,14.73
2019-04-07T12:20:45.175Z,19.47
2019-04-07T12:23:27.464Z,21.63
2019-04-07T12:26:02.144Z,15.43
2019-04-07T12:28:35.571Z,18.37
2019-04-07T12:31:13.860Z,16.83
2019-04-07T12:34:14.362Z,15.77
2019-04-07T12:36:56.234Z,17.97
2019-04-07T12:39:33.691Z,20.77
2019-04-07T12:42:10.201Z,18.83
2019-04-07T12:44:44.120Z,15.70
2019-04-07T12:47:41.048Z,17.57
2019-04-07T12:50:28.717Z,16.00
2019-04-07T12:53:16.930Z,15.40
2019-04-07T12:56:03.547Z,16.60
2019-04-07T12:58:35.579Z,14.10
2019-04-07T13:01:19.298Z,15.90
2019-04-07T13:04:04.670Z,14.17
2019-04-07T13:06:45.208Z,13.70
2019-04-07T13:09:32.041Z,13.50
2019-04-07T13:12:10.033Z,13.63
2019-04-07T13:14:56.568Z,18.07
2019-04-07T13:17:34.560Z,15.60
2019-04-07T13:20:18.994Z,13.97
2019-04-07T13:23:06.030Z,14.20
2019-04-07T13:25:43.436Z,12.33
2019-04-07T13:28:30.604Z,14.47
2019-04-07T13:31:04.950Z,13.80
2019-04-07T13:33:42.417Z,14.33
2019-04-07T13:36:20.345Z,13.80
2019-04-07T13:39:00.915Z,15.20
2019-04-07T13:41:44.948Z,14.53
2019-04-07T13:44:16.185Z,14.37
2019-04-07T13:47:06.383Z,12.83
2019-04-07T13:49:55.277Z,14.50
2019-04-07T13:52:41.945Z,14.40
2019-04-07T13:55:30.575Z,17.97
2019-04-07T14:07:16.929Z,13.40
2019-04-07T14:10:04.394Z,16.10
2019-04-07T14:12:55.633Z,15.77
2019-04-07T14:15:27.086Z,15.03
2019-04-07T14:18:01.210Z,15.40
2019-04-07T14:20:40.478Z,15.70
2019-04-07T14:23:12.244Z,15.60
2019-04-07T14:25:48.262Z,14.27
2019-04-07T14:28:20.113Z,17.00
2019-04-07T14:30:52.145Z,18.97
2019-04-07T14:33:39.242Z,17.47
2019-04-07T14:36:17.221Z,20.70
2019-04-07T14:38:48.567Z,17.63
2019-04-07T14:41:35.707Z,16.50
2019-04-07T14:44:10.128Z,18.23
2019-04-07T14:46:47.663Z,18.17
2019-04-07T14:49:34.161Z,18.33
2019-04-07T14:52:11.257Z,18.07
2019-04-07T14:54:56.173Z,21.20
2019-04-07T14:57:31.376Z,17.03
2019-04-07T15:00:15.270Z,18.47
2019-04-07T15:05:56.326Z,21.43
2019-04-07T15:08:36.994Z,20.23
2019-04-07T15:11:23.759Z,19.63
2019-04-07T15:13:56.916Z,20.47
2019-04-07T15:16:26.311Z,19.07
2019-04-07T15:19:06.560Z,21.40
2019-04-07T15:21:37.757Z,18.17
2019-04-07T15:24:11.609Z,18.73
2019-04-07T15:26:41.425Z,20.23
2019-04-07T15:29:11.175Z,18.97
2019-04-07T15:31:41.883Z,18.90
2019-04-07T15:34:14.137Z,16.77
2019-04-07T15:36:43.987Z,20.37
2019-04-07T15:39:13.826Z,18.33
2019-04-07T15:41:44.482Z,21.10
2019-04-07T15:44:18.148Z,17.03
2019-04-07T15:46:52.378Z,19.73
2019-04-07T15:49:23.501Z,28.80
2019-04-07T15:51:52.630Z,19.60
2019-04-07T15:54:24.208Z,19.83
2019-04-07T15:56:54.028Z,22.27
2019-04-07T15:59:24.773Z,19.30
2019-04-07T16:01:56.191Z,19.67
2019-04-07T16:04:28.400Z,20.00
2019-04-07T16:06:57.753Z,21.77
2019-04-07T16:09:36.056Z,29.40
2019-04-07T16:12:00.290Z,22.93
2019-04-07T16:14:30.960Z,23.00
2019-04-07T16:17:04.139Z,27.37
2019-04-07T16:19:39.688Z,24.17
2019-04-07T16:22:05.018Z,22.57
2019-04-07T16:24:34.819Z,25.90
2019-04-07T16:27:06.715Z,24.50
2019-04-07T16:29:36.478Z,25.90
2019-04-07T16:32:06.430Z,24.90
2019-04-07T16:34:42.786Z,25.77
2019-04-07T16:37:15.730Z,24.43
2019-04-07T16:39:53.148Z,27.33
2019-04-07T16:42:22.941Z,23.70
2019-04-07T16:44:53.756Z,24.50
2019-04-07T16:47:35.841Z,28.73
2019-04-07T16:50:51.116Z,23.10
2019-04-07T16:53:52.086Z,26.10
2019-04-07T16:59:36.647Z,27.37
2019-04-07T17:02:06.736Z,30.30
2019-04-07T17:04:39.190Z,24.20
2019-04-07T17:07:15.289Z,27.10
2019-04-07T17:09:48.862Z,25.70
2019-04-07T17:12:20.406Z,37.60
2019-04-07T17:14:54.311Z,36.40
2019-04-07T17:17:25.038Z,24.60
2019-04-07T17:19:57.349Z,24.70
2019-04-07T17:22:27.225Z,26.83
2019-04-07T17:25:00.337Z,23.27
2019-04-07T17:27:32.777Z,26.07
2019-04-07T17:30:05.374Z,25.70
2019-04-07T17:32:39.149Z,26.93
2019-04-07T17:35:17.816Z,23.53
2019-04-07T17:37:48.220Z,24.70
2019-04-07T17:40:19.596Z,27.03
2019-04-07T17:42:52.771Z,29.07
2019-04-07T17:45:23.567Z,28.20
2019-04-07T17:48:05.568Z,25.70
2019-04-07T17:50:34.256Z,33.30
2019-04-07T17:53:15.944Z,32.93
2019-04-07T17:56:00.159Z,32.70
2019-04-07T17:58:47.810Z,31.13
2019-04-07T18:01:21.677Z,35.23
2019-04-07T18:04:01.356Z,29.57
2019-04-07T18:06:49.474Z,30.13
2019-04-07T18:09:29.835Z,34.23
2019-04-07T18:12:12.807Z,31.80
2019-04-07T18:14:43.740Z,29.07
2019-04-07T18:17:21.530Z,28.83
2019-04-07T18:19:59.248Z,31.53
2019-04-07T18:22:47.715Z,29.73
2019-04-07T18:25:33.083Z,33.13
2019-04-07T18:28:04.085Z,26.20
2019-04-07T18:30:45.183Z,27.17
2019-04-07T18:33:33.559Z,27.27
2019-04-07T18:36:11.990Z,27.13
2019-04-07T18:39:01.148Z,25.40
2019-04-07T18:41:43.602Z,28.30
2019-04-07T18:44:27.258Z,31.43
2019-04-07T18:47:01.482Z,28.50
2019-04-07T18:49:36.542Z,32.63
2019-04-07T18:52:20.025Z,27.43
2019-04-07T18:55:08.983Z,26.30
2019-04-07T18:57:41.660Z,31.10
2019-04-07T19:00:13.699Z,29.80
2019-04-07T19:02:46.179Z,27.80
2019-04-07T19:05:25.140Z,27.90
2019-04-07T19:08:12.827Z,24.33
2019-04-07T19:11:10.391Z,22.90
2019-04-07T19:14:01.281Z,23.10
2019-04-07T19:16:27.957Z,24.97
2019-04-07T19:19:08.350Z,23.00
2019-04-07T19:21:43.452Z,26.07
2019-04-07T19:24:19.266Z,25.33
2019-04-07T19:27:11.990Z,24.60
2019-04-07T19:29:46.060Z,23.70
2019-04-07T19:32:34.132Z,25.70
2019-04-07T19:35:23.187Z,26.70
2019-04-07T19:38:07.570Z,21.93
2019-04-07T19:40:47.832Z,22.27
2019-04-07T19:43:25.110Z,24.07
2019-04-07T19:46:00.537Z,20.50
2019-04-07T19:48:50.412Z,20.60
2019-04-07T19:51:22.597Z,19.37
2019-04-07T19:53:54.286Z,22.70
2019-04-07T19:56:37.544Z,19.47
2019-04-07T19:59:14.611Z,20.50
2019-04-07T20:01:48.840Z,19.90
2019-04-07T20:04:22.936Z,19.60
2019-04-07T20:06:57.899Z,18.47
2019-04-07T20:09:44.104Z,23.97
2019-04-07T20:12:14.994Z,19.87
2019-04-07T20:15:08.871Z,19.57
2019-04-07T20:17:35.196Z,20.80
2019-04-07T20:20:09.999Z,22.27
2019-04-07T20:22:44.070Z,21.47
2019-04-07T20:25:27.242Z,20.30
2019-04-07T20:27:59.428Z,21.37
2019-04-07T20:30:49.542Z,20.20
2019-04-07T20:33:29.928Z,22.73
2019-04-07T20:36:04.925Z,20.03
2019-04-07T20:38:36.066Z,20.60
2019-04-07T20:41:23.959Z,21.83
2019-04-07T20:43:59.054Z,20.83
2019-04-07T20:46:30.493Z,24.00
2019-04-07T20:49:13.689Z,19.60
2019-04-07T20:52:03.003Z,22.70
2019-04-07T20:54:47.617Z,22.50
2019-04-07T20:57:37.251Z,22.50
2019-04-07T21:00:09.182Z,21.27
2019-04-07T21:03:06.482Z,20.47
2019-04-07T21:05:29.406Z,24.00
2019-04-07T21:08:17.835Z,22.53
2019-04-07T21:10:58.096Z,27.23
2019-04-07T21:13:39.590Z,27.80
2019-04-07T21:16:29.553Z,31.47
2019-04-07T21:19:12.389Z,30.77
2019-04-07T21:21:45.474Z,33.40
2019-04-07T21:24:20.027Z,34.97
2019-04-07T21:26:51.974Z,36.13
2019-04-07T21:29:35.152Z,35.10
2019-04-07T21:32:08.871Z,99.67
2019-04-07T21:34:45.028Z,83.00
2019-04-07T21:37:28.469Z,105.87
2019-04-07T21:40:07.557Z,69.97
2019-04-07T21:42:38.658Z,51.10
2019-04-07T21:45:13.413Z,43.97
2019-04-07T21:47:48.200Z,39.63
2019-04-07T21:50:22.319Z,38.20
2019-04-07T21:52:55.312Z,36.03
2019-04-07T21:55:28.848Z,28.50
2019-04-07T21:58:00.868Z,30.83
2019-04-07T22:00:48.922Z,29.23
2019-04-07T22:03:24.103Z,30.90
2019-04-07T22:05:59.441Z,33.03
2019-04-07T22:08:30.762Z,29.07
2019-04-07T22:11:00.344Z,30.07
2019-04-07T22:13:32.857Z,33.57
2019-04-07T22:16:03.879Z,29.63
2019-04-07T22:18:32.493Z,29.93
2019-04-07T22:21:02.240Z,29.73
2019-04-07T22:23:32.599Z,31.23
2019-04-07T22:26:02.556Z,27.80
2019-04-07T22:28:33.209Z,28.50
2019-04-07T22:31:04.484Z,29.77
2019-04-07T22:33:34.968Z,29.83
2019-04-07T22:36:04.627Z,27.33
2019-04-07T22:38:34.217Z,37.67
2019-04-07T22:41:06.773Z,29.60
2019-04-07T22:43:35.490Z,31.27
2019-04-07T22:46:12.691Z,29.93
2019-04-07T22:48:36.492Z,33.17
2019-04-07T22:51:09.983Z,33.43
2019-04-07T22:53:37.427Z,29.20
2019-04-07T22:56:07.925Z,28.80
2019-04-07T22:58:38.303Z,30.27
2019-04-07T23:01:08.978Z,33.17
2019-04-07T23:03:39.111Z,31.27
2019-04-07T23:06:09.406Z,31.17
2019-04-07T23:08:39.073Z,31.90
2019-04-07T23:11:08.495Z,31.40
2019-04-07T23:13:37.941Z,31.03
2019-04-07T23:16:13.497Z,29.67
2019-04-07T23:18:38.723Z,29.27
2019-04-07T23:21:08.285Z,36.67
2019-04-07T23:23:37.846Z,31.33
2019-04-07T23:26:07.565Z,26.23
2019-04-07T23:28:37.094Z,29.73
2019-04-07T23:31:07.520Z,28.93
2019-04-07T23:33:38.696Z,31.60
2019-04-07T23:36:08.237Z,32.53
2019-04-07T23:38:37.867Z,29.57
2019-04-07T23:41:07.373Z,30.70
2019-04-07T23:43:37.631Z,30.43
2019-04-07T23:46:19.432Z,29.57
2019-04-07T23:48:40.245Z,30.73
2019-04-07T23:51:10.231Z,32.30
2019-04-07T23:54:11.303Z,32.77
2019-04-07T23:56:43.488Z,51.53
2019-04-07T23:59:14.661Z,45.50
